Columbus, Ohio
Traffic Map
Current Weather Conditions
Columbus, Ohio
Broken Clouds
Broken Clouds
10°
Feels Like: 10°
Wind Chill: 10° Ceiling: 3100
Heat Index: 10° Visibility: 8mi
Dew Point: Wind: 5mph
Humidity: 93% Direction: 360° (N)
Pressure: 29.99in Gusts: 0mph
Raw Report DataKCMH 010551Z 36004KT 8SM BKN031 10/09 A2999 RMK AO2 SLP157 T01000089 10133 20100 51007
Traffic Incident Summary
Active as of:
Severity:
Category:
InformationThere was an issue retrieving the traffic information for this location. Please try a different location or try again shortly.
Advertisements
Track Severe Weather on mobile